ADDS TAF Data INFO
IDs: Format: Raw Decoded Include METARs

Data at: 1008 UTC 20 Jul 2018

TAF ETSI 200713Z 2008/2017 08005KT 9999 NSW FEW120 SCT280